Terminal Aerodrome Forecast
Issued by NWS Binghamton, NY

Home | Current Version | Previous Version | Text Only | Print | Product List | Glossary On
Versions: 1 2 3 4 5 6 7 8 9 10 11 12 13 14 15 16
000
FTUS41 KBGM 261120
TAFBGM
TAF
KBGM 261120Z 2612/2712 VRB03KT P6SM SCT250
     FM261600 20008KT P6SM SCT045 BKN100
      TEMPO 2617/2621 5SM -SHRA OVC040
     FM270600 20003KT P6SM FEW100=

USA.gov is the U.S. government's official web portal to all federal, state and local government web resources and services.